Time;durP1;ratioP1;P1;durP2;ratioP2;P2;SDS_P1;SDS_P2;PMS_P1;PMS_P2;Temp;Humidity;BMP_temperature;BMP_pressure;BME280_temperature;BME280_humidity;BME280_pressure;Samples;Min_cycle;Max_cycle;Signal;HPM_P1;HPM_P2
2021/11/29 00:02:03;;;;;;;18.85;7.88;;;2.20;99.90;;;;;;10093684;28;20079;-61
2021/11/29 00:07:05;;;;;;;18.83;7.80;;;2.20;99.90;;;;;;10089848;28;23104;-61
2021/11/29 00:12:07;;;;;;;16.85;7.32;;;2.30;99.90;;;;;;10091276;28;20139;-62
2021/11/29 00:17:09;;;;;;;22.35;8.48;;;2.30;99.90;;;;;;10097377;28;20053;-61
2021/11/29 00:22:11;;;;;;;19.10;7.53;;;2.30;99.90;;;;;;10093246;28;20049;-62
2021/11/29 00:27:12;;;;;;;17.83;7.80;;;2.30;99.90;;;;;;10090495;28;20076;-61
2021/11/29 00:32:14;;;;;;;17.88;8.20;;;2.30;99.90;;;;;;10093641;28;20053;-62
2021/11/29 00:37:16;;;;;;;19.25;8.02;;;2.20;99.90;;;;;;10090857;28;20064;-61
2021/11/29 00:42:18;;;;;;;22.33;7.75;;;2.00;99.90;;;;;;10089163;28;20095;-61
2021/11/29 00:47:20;;;;;;;15.95;6.95;;;1.90;99.90;;;;;;10086433;28;20051;-61
2021/11/29 00:52:22;;;;;;;19.45;8.13;;;2.00;99.90;;;;;;10096723;28;20119;-63
2021/11/29 00:57:23;;;;;;;22.30;7.97;;;2.00;99.90;;;;;;10087713;28;20064;-62
2021/11/29 01:02:25;;;;;;;19.02;8.23;;;2.10;99.90;;;;;;10097830;28;20110;-61
2021/11/29 01:07:27;;;;;;;18.35;7.57;;;2.20;99.90;;;;;;10085501;28;20131;-62
2021/11/29 01:12:29;;;;;;;22.60;8.93;;;2.20;99.90;;;;;;10090152;28;20487;-61
2021/11/29 01:17:31;;;;;;;22.88;7.63;;;2.30;99.90;;;;;;10090961;28;20409;-62
2021/11/29 01:22:33;;;;;;;23.13;7.55;;;2.40;99.90;;;;;;10086345;28;20107;-61
2021/11/29 01:27:35;;;;;;;18.52;7.43;;;2.50;99.90;;;;;;10090382;28;20100;-62
2021/11/29 01:32:37;;;;;;;17.73;5.97;;;2.70;99.90;;;;;;10089040;28;20045;-62
2021/11/29 01:37:39;;;;;;;16.40;6.47;;;2.80;99.90;;;;;;10091632;28;20107;-62
2021/11/29 01:43:03;;;;;;;14.48;4.93;;;2.90;99.90;;;;;;10088143;28;20103;-62
2021/11/29 01:48:06;;;;;;;12.02;4.70;;;2.90;99.90;;;;;;10087031;28;20096;-62
2021/11/29 01:53:09;;;;;;;12.20;5.07;;;3.00;99.90;;;;;;10087610;28;20585;-63
2021/11/29 01:58:11;;;;;;;14.43;5.38;;;3.00;99.90;;;;;;10096624;28;20459;-62
2021/11/29 02:03:14;;;;;;;13.85;4.15;;;3.00;99.90;;;;;;10091021;28;20045;-62
2021/11/29 02:08:16;;;;;;;12.15;4.32;;;3.00;99.90;;;;;;10089139;28;20076;-62
2021/11/29 02:13:19;;;;;;;10.45;3.90;;;3.00;99.90;;;;;;10091153;28;20048;-62
2021/11/29 02:18:29;;;;;;;6.80;3.17;;;3.00;99.90;;;;;;10093277;28;20044;-62
2021/11/29 02:23:36;;;;;;;6.40;3.03;;;3.00;99.90;;;;;;10094046;28;20404;-62
2021/11/29 02:28:42;;;;;;;6.70;2.07;;;3.00;99.90;;;;;;10090199;28;20154;-62
2021/11/29 02:33:44;;;;;;;7.80;2.38;;;2.90;99.90;;;;;;10085481;28;20309;-62
2021/11/29 02:38:46;;;;;;;9.48;2.70;;;2.90;99.90;;;;;;10090568;28;20142;-62
2021/11/29 02:43:48;;;;;;;5.43;2.50;;;2.70;99.90;;;;;;10084523;28;20088;-62
2021/11/29 02:48:52;;;;;;;7.72;2.40;;;2.70;99.90;;;;;;10094825;28;20061;-62
2021/11/29 02:54:02;;;;;;;6.38;1.80;;;2.60;99.90;;;;;;10088572;28;20120;-63
2021/11/29 02:59:08;;;;;;;6.30;2.30;;;2.50;99.90;;;;;;10084450;28;20074;-62
2021/11/29 03:04:10;;;;;;;4.80;1.88;;;2.40;99.90;;;;;;10098121;28;20060;-62
2021/11/29 03:09:12;;;;;;;6.30;2.60;;;2.40;99.90;;;;;;10092581;28;20554;-63
2021/11/29 03:14:15;;;;;;;6.53;2.10;;;2.30;99.90;;;;;;10095950;28;20443;-62
2021/11/29 03:19:16;;;;;;;8.45;2.38;;;2.30;99.90;;;;;;10091812;28;20077;-62
2021/11/29 03:24:18;;;;;;;8.52;2.75;;;2.30;99.90;;;;;;10091819;28;20052;-62
2021/11/29 03:29:20;;;;;;;7.15;2.20;;;2.20;99.90;;;;;;10093774;28;20053;-62
2021/11/29 03:34:23;;;;;;;7.78;2.50;;;2.20;99.90;;;;;;10093620;28;20392;-62
2021/11/29 03:39:27;;;;;;;11.23;2.60;;;2.10;99.90;;;;;;10096258;28;20072;-62
2021/11/29 03:44:28;;;;;;;5.35;1.85;;;2.10;99.90;;;;;;10098242;28;20077;-61
2021/11/29 03:49:30;;;;;;;5.90;2.08;;;2.10;99.90;;;;;;10089889;28;20085;-61
2021/11/29 03:54:32;;;;;;;5.50;1.75;;;2.10;99.90;;;;;;10103882;28;20052;-62
2021/11/29 03:59:35;;;;;;;5.00;1.58;;;2.10;99.90;;;;;;10096160;28;20057;-62
2021/11/29 04:04:37;;;;;;;5.53;1.63;;;2.10;99.90;;;;;;10096901;28;20487;-61
2021/11/29 04:09:39;;;;;;;5.50;1.70;;;2.00;99.90;;;;;;10094931;28;20048;-62
2021/11/29 04:14:40;;;;;;;7.55;2.38;;;2.10;99.90;;;;;;10095332;28;20127;-62
2021/11/29 04:19:44;;;;;;;5.03;1.33;;;2.10;99.90;;;;;;10094871;28;20133;-63
2021/11/29 04:24:47;;;;;;;6.45;1.80;;;2.00;99.90;;;;;;10089957;28;20061;-62
2021/11/29 04:29:49;;;;;;;5.03;1.90;;;1.90;99.90;;;;;;10094121;28;20052;-62
2021/11/29 04:34:51;;;;;;;6.20;2.33;;;1.90;99.90;;;;;;10093128;28;20080;-67
2021/11/29 04:39:53;;;;;;;6.20;1.83;;;1.90;99.90;;;;;;10102130;28;20063;-63
2021/11/29 04:44:54;;;;;;;6.22;2.22;;;1.80;99.90;;;;;;10090465;28;20088;-62
2021/11/29 04:49:56;;;;;;;6.38;2.40;;;1.80;99.90;;;;;;10098292;28;20088;-63
2021/11/29 04:54:58;;;;;;;7.25;2.72;;;1.80;99.90;;;;;;10090552;28;20455;-62
2021/11/29 05:00:00;;;;;;;7.25;2.75;;;1.80;99.90;;;;;;10110635;28;20116;-62
2021/11/29 05:05:02;;;;;;;6.05;2.20;;;1.80;99.90;;;;;;10093529;28;20053;-62
2021/11/29 05:10:06;;;;;;;6.25;2.38;;;1.70;99.90;;;;;;10091476;28;20060;-62
2021/11/29 05:15:08;;;;;;;7.35;2.58;;;1.70;99.90;;;;;;10091433;28;20065;-62
2021/11/29 05:20:10;;;;;;;6.63;2.92;;;1.70;99.90;;;;;;10090875;28;20060;-63
2021/11/29 05:25:11;;;;;;;7.53;2.75;;;1.60;99.90;;;;;;10091970;28;20071;-62
2021/11/29 05:30:14;;;;;;;7.35;2.90;;;1.50;99.90;;;;;;10091028;28;20465;-62
2021/11/29 05:35:15;;;;;;;11.88;1.98;;;1.60;99.90;;;;;;10091106;28;20056;-62
2021/11/29 05:40:17;;;;;;;8.40;2.65;;;1.60;99.90;;;;;;10089107;28;20060;-62
2021/11/29 05:45:20;;;;;;;6.30;2.08;;;1.50;99.90;;;;;;10087412;28;20064;-62
2021/11/29 05:50:22;;;;;;;7.53;2.55;;;1.60;99.90;;;;;;10088822;28;20072;-62
2021/11/29 05:55:23;;;;;;;6.28;2.70;;;1.50;99.90;;;;;;10088535;28;20111;-61
2021/11/29 06:00:25;;;;;;;7.43;2.85;;;1.40;99.90;;;;;;10091959;28;20060;-62
2021/11/29 06:05:27;;;;;;;12.07;3.20;;;1.50;99.90;;;;;;10094702;28;20206;-62
2021/11/29 06:10:29;;;;;;;6.03;2.90;;;1.40;99.90;;;;;;10088070;28;20581;-62
2021/11/29 06:15:31;;;;;;;9.40;3.17;;;1.40;99.90;;;;;;10088606;28;20053;-62
2021/11/29 06:20:32;;;;;;;12.93;4.38;;;1.30;99.90;;;;;;10094016;28;20060;-62
2021/11/29 06:25:37;;;;;;;12.55;4.18;;;1.30;99.90;;;;;;10090760;28;20053;-62
2021/11/29 06:30:39;;;;;;;8.85;3.45;;;1.30;99.90;;;;;;10091993;28;20445;-62
2021/11/29 06:35:41;;;;;;;13.50;3.45;;;1.30;99.90;;;;;;10093471;28;20072;-61
2021/11/29 06:40:49;;;;;;;11.73;3.42;;;1.30;99.90;;;;;;10098360;28;20044;-62
2021/11/29 06:45:52;;;;;;;11.63;3.55;;;1.30;99.90;;;;;;10089287;28;20103;-62
2021/11/29 06:50:54;;;;;;;12.70;3.83;;;1.30;99.90;;;;;;10087738;28;20144;-61
2021/11/29 06:55:56;;;;;;;13.73;3.90;;;1.40;99.90;;;;;;10089815;28;20053;-61
2021/11/29 07:00:58;;;;;;;9.50;3.50;;;1.50;99.90;;;;;;10114299;28;20088;-63
2021/11/29 07:06:01;;;;;;;8.85;3.22;;;1.50;99.90;;;;;;10085000;28;20052;-63
2021/11/29 07:11:04;;;;;;;13.05;4.35;;;1.60;99.90;;;;;;10092446;28;20479;-63
2021/11/29 07:16:06;;;;;;;9.98;3.85;;;1.70;99.90;;;;;;10084991;28;20091;-63
2021/11/29 07:21:10;;;;;;;13.90;5.32;;;1.70;99.90;;;;;;10092611;28;20053;-63
2021/11/29 07:26:13;;;;;;;10.80;3.92;;;1.80;99.90;;;;;;10085369;28;20051;-63
2021/11/29 07:31:14;;;;;;;9.07;4.60;;;1.80;99.90;;;;;;10086446;28;20119;-63
2021/11/29 07:36:16;;;;;;;12.32;5.15;;;1.90;99.90;;;;;;10087362;28;20091;-63
2021/11/29 07:41:19;;;;;;;13.13;5.45;;;1.90;99.90;;;;;;10095159;28;20056;-66
2021/11/29 07:46:20;;;;;;;12.52;4.38;;;2.00;99.90;;;;;;10086692;28;20076;-66
2021/11/29 07:51:22;;;;;;;18.17;5.97;;;1.90;99.90;;;;;;10090128;28;20052;-66
2021/11/29 07:56:24;;;;;;;19.60;6.32;;;2.00;99.90;;;;;;10098283;28;20052;-66
2021/11/29 08:01:27;;;;;;;36.25;10.38;;;2.00;99.90;;;;;;10115308;22;20048;-88
2021/11/29 08:06:29;;;;;;;24.05;5.95;;;1.90;99.90;;;;;;10131718;28;20056;-88
2021/11/29 08:11:31;;;;;;;15.15;5.05;;;2.10;99.90;;;;;;10099227;28;20088;-89
2021/11/29 08:16:33;;;;;;;13.65;5.10;;;2.20;99.90;;;;;;10090281;28;20139;-89
2021/11/29 08:21:35;;;;;;;11.68;5.18;;;2.20;99.90;;;;;;10135603;28;20063;-89
2021/11/29 08:26:37;;;;;;;12.30;4.57;;;2.30;99.90;;;;;;10102297;28;21485;-89
2021/11/29 08:31:39;;;;;;;11.55;4.30;;;2.40;99.90;;;;;;10102487;28;20053;-89
2021/11/29 08:36:41;;;;;;;15.48;5.38;;;2.50;99.90;;;;;;10130571;28;20060;-89
2021/11/29 08:41:43;;;;;;;14.65;4.65;;;2.50;99.90;;;;;;10123030;28;20049;-89
2021/11/29 08:46:48;;;;;;;19.33;5.05;;;2.50;99.90;;;;;;10131830;28;20055;-90
2021/11/29 08:51:54;;;;;;;19.88;5.38;;;2.50;99.90;;;;;;10116768;28;20045;-90
2021/11/29 08:56:56;;;;;;;16.52;6.53;;;2.60;99.90;;;;;;10111511;28;20148;-90
2021/11/29 09:01:58;;;;;;;13.75;5.30;;;2.70;99.90;;;;;;10087009;28;20128;-89
2021/11/29 09:07:01;;;;;;;10.85;5.57;;;2.70;99.90;;;;;;10102136;28;20063;-90
2021/11/29 09:12:03;;;;;;;13.07;5.38;;;2.80;99.90;;;;;;10107561;28;20403;-90
2021/11/29 09:17:13;;;;;;;13.75;6.28;;;2.90;99.90;;;;;;9971508;28;20494;-90
2021/11/29 09:22:26;;;;;;;16.40;6.68;;;3.00;99.90;;;;;;9919689;28;20079;-90
2021/11/29 09:27:29;;;;;;;15.50;6.18;;;3.10;99.90;;;;;;10089544;28;20108;-90
2021/11/29 09:32:36;;;;;;;10.43;5.05;;;3.10;99.90;;;;;;10090910;28;20052;-90
2021/11/29 09:37:39;;;;;;;8.82;3.90;;;3.10;99.90;;;;;;10112646;28;20068;-90
2021/11/29 09:42:41;;;;;;;9.65;4.38;;;3.10;99.90;;;;;;10088782;28;20045;-90
2021/11/29 09:47:44;;;;;;;7.40;3.47;;;3.20;99.90;;;;;;10114118;28;20076;-91
2021/11/29 09:52:46;;;;;;;8.98;4.20;;;3.20;99.90;;;;;;10115260;28;20590;-91
2021/11/29 09:57:49;;;;;;;11.75;4.43;;;3.30;99.90;;;;;;10104420;28;20511;-91
2021/11/29 10:02:52;;;;;;;11.30;4.20;;;3.40;99.90;;;;;;10094942;28;20095;-91
2021/11/29 10:07:56;;;;;;;12.25;4.22;;;3.40;99.90;;;;;;10110556;28;20060;-91
2021/11/29 10:13:06;;;;;;;10.20;4.03;;;3.30;99.90;;;;;;10113482;28;20410;-92
2021/11/29 10:18:18;;;;;;;11.70;3.38;;;3.40;99.90;;;;;;10121335;28;20060;-91
2021/11/29 10:23:42;;;;;;;8.52;4.18;;;3.40;99.90;;;;;;10097106;28;20056;-90
2021/11/29 10:28:47;;;;;;;6.65;3.60;;;3.40;99.90;;;;;;10124634;28;20060;-91
2021/11/29 10:34:16;;;;;;;9.00;2.80;;;3.40;99.90;;;;;;10112755;28;20052;-91
2021/11/29 10:39:28;;;;;;;10.80;2.33;;;3.40;99.90;;;;;;10080981;28;20104;-90
2021/11/29 10:44:32;;;;;;;7.10;2.90;;;3.40;99.90;;;;;;10091792;28;20049;-90
2021/11/29 10:49:40;;;;;;;5.50;3.08;;;3.40;99.90;;;;;;10118336;28;20063;-90
2021/11/29 10:54:44;;;;;;;9.93;3.70;;;3.40;99.90;;;;;;10104217;28;20053;-89
2021/11/29 10:59:48;;;;;;;10.27;2.72;;;3.50;99.90;;;;;;10089195;28;20418;-91
2021/11/29 11:05:06;;;;;;;7.38;2.67;;;3.60;99.90;;;;;;10110757;28;20056;-91
2021/11/29 11:10:14;;;;;;;5.20;2.28;;;3.60;99.90;;;;;;10104632;28;20688;-91
2021/11/29 11:15:19;;;;;;;4.45;1.80;;;3.70;99.90;;;;;;10090341;28;20056;-91
2021/11/29 11:20:38;;;;;;;6.05;2.13;;;3.70;99.90;;;;;;10096545;28;20048;-91
2021/11/29 11:25:42;;;;;;;3.67;1.30;;;3.70;99.90;;;;;;10094961;28;20053;-91
2021/11/29 11:30:45;;;;;;;5.45;1.58;;;3.70;99.90;;;;;;10095394;28;20132;-91
2021/11/29 11:35:49;;;;;;;4.75;1.33;;;3.70;99.90;;;;;;10104458;28;20081;-91
2021/11/29 11:40:52;;;;;;;4.68;1.45;;;3.80;99.90;;;;;;10100168;28;20060;-91
2021/11/29 11:45:55;;;;;;;4.75;1.75;;;4.00;99.90;;;;;;10049429;28;20057;-91
2021/11/29 11:51:15;;;;;;;5.18;1.38;;;3.90;99.90;;;;;;9807385;28;20553;-90
2021/11/29 11:56:46;;;;;;;7.90;1.77;;;3.90;99.90;;;;;;9971248;28;20057;-90
2021/11/29 12:01:56;;;;;;;6.20;1.53;;;3.80;99.90;;;;;;10020445;28;20044;-91
2021/11/29 12:07:02;;;;;;;3.60;1.23;;;3.80;99.90;;;;;;10110604;28;20049;-90
2021/11/29 12:12:07;;;;;;;4.30;1.60;;;3.80;99.90;;;;;;10064037;28;20049;-90
2021/11/29 12:17:11;;;;;;;4.75;1.35;;;3.70;99.90;;;;;;10070814;28;20076;-90
2021/11/29 12:22:16;;;;;;;4.78;1.13;;;3.80;99.90;;;;;;10087587;28;20049;-90
2021/11/29 12:27:38;;;;;;;3.65;1.25;;;3.90;99.90;;;;;;10108400;28;20048;-90
2021/11/29 12:32:55;;;;;;;2.10;1.10;;;3.90;99.90;;;;;;10109259;28;20136;-90
2021/11/29 12:38:08;;;;;;;4.23;1.20;;;3.90;99.90;;;;;;10115796;28;20136;-90
2021/11/29 12:43:10;;;;;;;3.70;1.20;;;3.90;99.90;;;;;;10107544;28;20104;-90
2021/11/29 12:48:14;;;;;;;5.03;1.33;;;3.90;99.90;;;;;;10114366;28;20052;-90
2021/11/29 12:53:38;;;;;;;5.22;1.05;;;4.00;99.90;;;;;;10104352;28;20048;-90
2021/11/29 12:58:52;;;;;;;5.47;1.00;;;4.00;99.90;;;;;;10107281;28;20068;-89
2021/11/29 13:03:55;;;;;;;7.63;1.42;;;4.00;99.90;;;;;;10119140;28;20131;-90
2021/11/29 13:09:38;;;;;;;4.18;0.82;;;4.10;99.90;;;;;;10112090;28;20064;-90
2021/11/29 13:14:40;;;;;;;3.22;1.15;;;4.10;99.90;;;;;;10142404;28;20060;-91
2021/11/29 13:19:44;;;;;;;3.03;0.93;;;3.90;99.90;;;;;;10093882;28;20060;-91
2021/11/29 13:24:50;;;;;;;1.67;0.82;;;3.70;99.90;;;;;;10117459;28;20131;-91
2021/11/29 13:29:55;;;;;;;4.60;1.00;;;3.60;99.90;;;;;;10094125;28;20061;-90
2021/11/29 13:35:03;;;;;;;3.45;1.13;;;3.60;99.90;;;;;;10102112;28;20115;-90
2021/11/29 13:40:12;;;;;;;4.87;0.97;;;3.60;99.90;;;;;;10088068;28;20041;-89
2021/11/29 13:45:16;;;;;;;3.47;0.85;;;3.60;99.90;;;;;;10097780;28;20115;-91
2021/11/29 13:50:24;;;;;;;5.20;1.40;;;3.70;99.90;;;;;;10105431;28;20549;-90
2021/11/29 13:55:30;;;;;;;5.57;0.70;;;3.70;99.90;;;;;;10107609;28;20048;-90
2021/11/29 14:00:36;;;;;;;3.58;0.60;;;3.70;99.90;;;;;;10109210;28;20036;-90
2021/11/29 14:06:07;;;;;;;4.40;1.00;;;3.70;99.90;;;;;;10078869;28;20094;-91
2021/11/29 14:11:13;;;;;;;3.70;0.77;;;3.70;99.90;;;;;;10116386;28;20065;-90
2021/11/29 14:16:24;;;;;;;1.85;0.65;;;3.60;99.90;;;;;;10100219;28;20064;-89
2021/11/29 14:21:47;;;;;;;5.93;0.70;;;3.60;99.90;;;;;;10101972;28;20079;-90
2021/11/29 14:27:03;;;;;;;3.50;0.60;;;3.50;99.90;;;;;;10114245;28;20103;-90
2021/11/29 14:32:20;;;;;;;4.55;0.60;;;3.60;99.90;;;;;;10108865;28;20487;-90
2021/11/29 14:37:33;;;;;;;2.13;0.57;;;3.60;99.90;;;;;;10108956;28;20064;-89
2021/11/29 14:42:39;;;;;;;2.17;0.57;;;3.60;99.90;;;;;;10132116;28;20071;-90
2021/11/29 14:47:47;;;;;;;1.77;0.60;;;3.60;99.90;;;;;;10112653;28;20049;-89
2021/11/29 14:53:00;;;;;;;1.65;0.70;;;3.70;99.90;;;;;;10109469;28;20080;-89
2021/11/29 14:58:16;;;;;;;2.05;0.52;;;3.70;99.90;;;;;;10091277;28;20499;-89
2021/11/29 15:03:26;;;;;;;;;;;3.70;99.90;;;;;;10107639;28;20045;-89
2021/11/29 15:08:38;;;;;;;1.23;0.60;;;3.80;99.90;;;;;;10112728;28;19927;-89
2021/11/29 15:13:56;;;;;;;1.05;0.40;;;3.80;99.90;;;;;;10193282;28;20049;-90
2021/11/29 15:19:23;;;;;;;0.85;0.50;;;3.70;99.90;;;;;;10114517;28;20045;-89
2021/11/29 15:24:34;;;;;;;0.90;0.40;;;3.70;99.90;;;;;;10089267;28;20060;-89
2021/11/29 15:29:39;;;;;;;0.95;0.40;;;3.60;99.90;;;;;;10118286;28;20063;-89
2021/11/29 15:34:58;;;;;;;1.48;0.40;;;3.60;99.90;;;;;;10101324;28;20447;-89
2021/11/29 15:40:23;;;;;;;1.60;0.50;;;3.60;99.90;;;;;;10111775;28;20059;-89
2021/11/29 15:45:30;;;;;;;1.55;0.70;;;3.60;99.90;;;;;;10120696;28;20055;-88
2021/11/29 15:50:32;;;;;;;;;;;3.60;99.90;;;;;;10099934;28;20401;-89
2021/11/29 15:55:35;;;;;;;2.75;1.20;;;3.70;99.90;;;;;;10100598;28;19911;-89
2021/11/29 16:00:37;;;;;;;3.08;1.27;;;3.60;99.90;;;;;;10120202;28;20061;-89
2021/11/29 16:05:39;;;;;;;4.60;1.42;;;3.60;99.90;;;;;;10104814;28;20061;-89
2021/11/29 16:10:42;;;;;;;4.68;1.70;;;3.60;99.90;;;;;;10117272;28;20079;-89
2021/11/29 16:15:46;;;;;;;5.07;1.73;;;3.60;99.90;;;;;;9992386;28;20133;-89
2021/11/29 16:20:56;;;;;;;7.65;2.05;;;3.60;99.90;;;;;;10082397;28;20056;-90
2021/11/29 16:25:59;;;;;;;7.70;3.45;;;3.60;99.90;;;;;;10105822;28;20049;-89
2021/11/29 16:31:01;;;;;;;6.05;2.00;;;3.50;99.90;;;;;;10075829;28;20131;-89
2021/11/29 16:36:03;;;;;;;9.85;3.50;;;3.50;99.90;;;;;;10113938;28;20136;-89
2021/11/29 16:41:07;;;;;;;10.00;2.92;;;3.50;99.90;;;;;;10054113;28;20052;-89
2021/11/29 16:46:10;;;;;;;8.50;2.95;;;3.50;99.90;;;;;;10092173;28;20228;-90
2021/11/29 16:51:13;;;;;;;9.32;3.47;;;3.40;99.90;;;;;;10104380;28;20051;-89
2021/11/29 16:56:15;;;;;;;9.95;3.30;;;3.50;99.90;;;;;;10109975;28;20061;-90
2021/11/29 17:01:17;;;;;;;7.80;3.03;;;3.40;99.90;;;;;;10104098;28;20872;-89
2021/11/29 17:06:20;;;;;;;7.30;3.60;;;3.50;99.90;;;;;;10058778;28;20067;-91
2021/11/29 17:11:25;;;;;;;8.15;3.55;;;3.50;99.90;;;;;;10089412;28;20094;-90
2021/11/29 17:16:34;;;;;;;9.90;4.15;;;3.50;99.90;;;;;;10111626;28;20056;-90
2021/11/29 17:28:09;;;;;;;13.50;4.63;;;3.50;99.90;;;;;;10010670;28;20040;-90
2021/11/29 17:33:11;;;;;;;11.45;4.53;;;3.60;99.90;;;;;;10044317;28;20056;-91
2021/11/29 17:38:14;;;;;;;12.75;5.47;;;3.70;99.90;;;;;;10090913;28;20053;-90
2021/11/29 17:43:17;;;;;;;9.35;3.33;;;3.70;99.90;;;;;;10105292;28;20116;-90
2021/11/29 17:48:34;;;;;;;12.75;3.38;;;3.70;99.90;;;;;;10117373;28;20078;-90
2021/11/29 17:53:36;;;;;;;11.37;3.60;;;3.70;99.90;;;;;;10125706;28;20108;-89
2021/11/29 17:58:41;;;;;;;8.63;4.15;;;3.70;99.90;;;;;;10097895;28;20049;-89
2021/11/29 18:03:43;;;;;;;9.38;3.63;;;3.70;99.90;;;;;;10112831;28;20065;-89
2021/11/29 18:14:07;;;;;;;9.55;3.78;;;3.70;99.90;;;;;;10118640;28;20055;-89
2021/11/29 18:19:22;;;;;;;16.35;4.80;;;3.70;99.90;;;;;;10120879;28;20097;-89
2021/11/29 18:24:30;;;;;;;11.27;4.93;;;3.70;99.90;;;;;;10114357;28;20041;-89
2021/11/29 18:29:37;;;;;;;12.13;5.63;;;3.70;99.90;;;;;;10101380;28;20032;-90
2021/11/29 18:34:39;;;;;;;9.63;4.18;;;3.60;99.90;;;;;;10102469;28;20059;-90
2021/11/29 18:39:41;;;;;;;8.05;4.20;;;3.50;99.90;;;;;;10103438;28;20056;-89
2021/11/29 18:44:48;;;;;;;12.05;4.75;;;3.40;99.90;;;;;;10112334;28;20045;-89
2021/11/29 18:49:51;;;;;;;12.93;6.18;;;3.30;99.90;;;;;;10123863;28;20120;-89
2021/11/29 18:54:52;;;;;;;15.38;6.55;;;3.30;99.90;;;;;;10112786;28;20044;-90
2021/11/29 18:59:55;;;;;;;13.20;5.65;;;3.20;99.90;;;;;;10106411;28;20048;-89
2021/11/29 19:04:56;;;;;;;12.82;5.57;;;3.20;99.90;;;;;;10097629;28;20051;-89
2021/11/29 19:10:06;;;;;;;12.18;5.20;;;3.20;99.90;;;;;;10080989;28;20061;-89
2021/11/29 19:15:09;;;;;;;12.63;5.15;;;3.20;99.90;;;;;;10137834;28;20079;-89
2021/11/29 19:20:12;;;;;;;17.55;7.32;;;3.30;99.90;;;;;;10115908;28;20087;-89
2021/11/29 19:25:14;;;;;;;12.90;6.15;;;3.30;99.90;;;;;;10106077;28;20041;-89
2021/11/29 19:30:20;;;;;;;12.43;5.40;;;3.30;99.90;;;;;;10099203;28;20044;-89
2021/11/29 19:35:23;;;;;;;10.68;4.72;;;3.40;99.90;;;;;;10097752;28;20463;-90
2021/11/29 19:45:57;;;;;;;11.30;4.90;;;3.40;99.90;;;;;;10092794;28;20117;-89
2021/11/29 19:50:58;;;;;;;13.50;4.72;;;3.40;99.90;;;;;;10125564;28;20139;-89
2021/11/29 19:56:06;;;;;;;13.45;5.65;;;3.40;99.90;;;;;;10112432;28;20044;-90
2021/11/29 20:01:08;;;;;;;16.10;5.88;;;3.40;99.90;;;;;;10103049;28;20060;-89
2021/11/29 20:06:12;;;;;;;10.02;5.03;;;3.40;99.90;;;;;;10180144;28;20056;-89
2021/11/29 20:11:16;;;;;;;12.48;6.43;;;3.50;99.90;;;;;;10094253;28;20045;-90
2021/11/29 20:16:35;;;;;;;18.67;5.63;;;3.50;99.90;;;;;;10122032;28;20783;-90
2021/11/29 20:21:42;;;;;;;12.55;5.57;;;3.50;99.90;;;;;;10108909;28;20059;-90
2021/11/29 20:26:49;;;;;;;16.60;5.95;;;3.50;99.90;;;;;;10113935;28;20044;-90
2021/11/29 20:31:57;;;;;;;11.30;5.20;;;3.50;99.90;;;;;;10097632;28;20053;-89
2021/11/29 20:36:59;;;;;;;16.45;5.90;;;3.50;99.90;;;;;;10105995;28;20081;-90
2021/11/29 20:42:03;;;;;;;10.77;5.72;;;3.50;99.90;;;;;;10110926;28;20057;-90
2021/11/29 20:47:05;;;;;;;12.18;4.72;;;3.60;99.90;;;;;;10096341;28;20049;-90
2021/11/29 20:52:06;;;;;;;14.73;5.00;;;3.50;99.90;;;;;;10125733;28;20073;-88
2021/11/29 20:57:08;;;;;;;12.00;4.43;;;3.50;99.90;;;;;;10107729;28;20064;-89
2021/11/29 21:02:12;;;;;;;13.82;5.38;;;3.50;99.90;;;;;;10112829;28;20135;-89
2021/11/29 21:07:16;;;;;;;13.25;5.03;;;3.50;99.90;;;;;;10117231;28;20108;-89
2021/11/29 21:12:28;;;;;;;9.75;4.68;;;3.50;99.90;;;;;;10105974;28;20102;-88
2021/11/29 21:18:18;;;;;;;13.90;5.07;;;3.50;99.90;;;;;;10101423;28;20049;-89
2021/11/29 21:23:20;;;;;;;12.10;5.05;;;3.40;99.90;;;;;;10104529;28;20119;-88
2021/11/29 21:28:23;;;;;;;13.70;5.10;;;3.40;99.90;;;;;;10118136;28;20080;-88
2021/11/29 21:33:25;;;;;;;11.80;4.90;;;3.40;99.90;;;;;;10105207;28;20123;-89
2021/11/29 21:38:27;;;;;;;10.23;5.15;;;3.40;99.90;;;;;;10107734;28;20076;-89
2021/11/29 21:43:29;;;;;;;9.80;4.47;;;3.40;99.90;;;;;;10120839;28;20045;-89
2021/11/29 21:48:31;;;;;;;7.95;3.50;;;3.40;99.90;;;;;;10125171;28;20056;-89
2021/11/29 21:53:33;;;;;;;10.90;4.13;;;3.50;99.90;;;;;;10109265;28;20111;-91
2021/11/29 21:58:35;;;;;;;8.98;3.75;;;3.40;99.90;;;;;;10107081;28;20045;-90
2021/11/29 22:03:37;;;;;;;8.30;3.20;;;3.40;99.90;;;;;;10101038;28;20059;-90
2021/11/29 22:08:40;;;;;;;8.98;4.20;;;3.40;99.90;;;;;;10095911;28;20063;-91
2021/11/29 22:13:43;;;;;;;11.20;3.83;;;3.40;99.90;;;;;;10095736;28;20071;-91
2021/11/29 22:18:47;;;;;;;9.32;4.07;;;3.40;99.90;;;;;;10118502;28;20060;-90
2021/11/29 22:23:49;;;;;;;8.95;3.55;;;3.40;99.90;;;;;;10109992;28;20078;-89
2021/11/29 22:28:50;;;;;;;12.43;3.88;;;3.40;99.90;;;;;;10091268;28;20132;-89
2021/11/29 22:33:54;;;;;;;7.60;3.20;;;3.40;99.90;;;;;;10080224;28;20047;-91
2021/11/29 22:38:55;;;;;;;7.18;3.08;;;3.40;99.90;;;;;;10111894;28;20052;-90
2021/11/29 22:43:57;;;;;;;8.93;4.18;;;3.30;99.90;;;;;;10066267;28;20056;-90
2021/11/29 22:48:59;;;;;;;8.18;3.65;;;3.20;99.90;;;;;;10098050;28;20063;-90
2021/11/29 22:54:01;;;;;;;10.90;3.08;;;3.20;99.90;;;;;;10103329;28;20115;-90
2021/11/29 22:59:03;;;;;;;8.63;3.63;;;3.20;99.90;;;;;;10087224;28;20057;-90
2021/11/29 23:04:05;;;;;;;8.90;3.60;;;3.20;99.90;;;;;;10092700;28;20044;-90
2021/11/29 23:09:12;;;;;;;5.82;2.92;;;3.20;99.90;;;;;;10108370;28;20127;-89
2021/11/29 23:14:16;;;;;;;6.07;3.30;;;3.20;99.90;;;;;;10115229;28;20061;-89
2021/11/29 23:19:18;;;;;;;8.95;3.33;;;3.20;99.90;;;;;;10087645;28;20467;-89
2021/11/29 23:24:20;;;;;;;9.40;3.75;;;3.20;99.90;;;;;;10109451;28;20061;-89
2021/11/29 23:35:46;;;;;;;10.27;3.83;;;3.30;99.90;;;;;;10092964;28;20039;-89
2021/11/29 23:40:48;;;;;;;6.70;3.17;;;3.30;99.90;;;;;;10121604;28;20045;-89
2021/11/29 23:51:13;;;;;;;7.78;3.00;;;3.30;99.90;;;;;;10114540;28;20125;-89
2021/11/29 23:56:30;;;;;;;7.85;3.13;;;3.30;99.90;;;;;;10107734;28;20127;-89
